sensor_id;sensor_type;location;lat;lon;timestamp;P1;durP1;ratioP1;P2;durP2;ratioP2
48629;SDS011;34426;52.180;4.462;2022-07-17T00:01:01;6.03;;;1.60;;
48629;SDS011;34426;52.180;4.462;2022-07-17T00:03:28;6.40;;;1.35;;
48629;SDS011;34426;52.180;4.462;2022-07-17T00:05:54;8.70;;;1.60;;
48629;SDS011;34426;52.180;4.462;2022-07-17T00:08:19;9.20;;;2.28;;
48629;SDS011;34426;52.180;4.462;2022-07-17T00:10:45;8.52;;;1.60;;
48629;SDS011;34426;52.180;4.462;2022-07-17T00:13:10;4.95;;;1.90;;
48629;SDS011;34426;52.180;4.462;2022-07-17T00:15:36;8.98;;;2.00;;
48629;SDS011;34426;52.180;4.462;2022-07-17T00:18:02;7.13;;;1.90;;
48629;SDS011;34426;52.180;4.462;2022-07-17T00:20:29;5.28;;;1.30;;
48629;SDS011;34426;52.180;4.462;2022-07-17T00:22:55;7.10;;;2.33;;
48629;SDS011;34426;52.180;4.462;2022-07-17T00:25:21;7.70;;;1.75;;
48629;SDS011;34426;52.180;4.462;2022-07-17T00:27:46;7.00;;;1.95;;
48629;SDS011;34426;52.180;4.462;2022-07-17T00:30:12;7.20;;;2.08;;
48629;SDS011;34426;52.180;4.462;2022-07-17T00:32:38;5.38;;;1.90;;
48629;SDS011;34426;52.180;4.462;2022-07-17T00:35:05;8.15;;;2.10;;
48629;SDS011;34426;52.180;4.462;2022-07-17T00:37:37;6.50;;;1.88;;
48629;SDS011;34426;52.180;4.462;2022-07-17T00:40:03;3.55;;;1.50;;
48629;SDS011;34426;52.180;4.462;2022-07-17T00:42:30;3.80;;;1.55;;
48629;SDS011;34426;52.180;4.462;2022-07-17T00:44:55;5.90;;;1.65;;
48629;SDS011;34426;52.180;4.462;2022-07-17T00:47:21;4.78;;;1.52;;
48629;SDS011;34426;52.180;4.462;2022-07-17T00:49:46;5.05;;;1.27;;
48629;SDS011;34426;52.180;4.462;2022-07-17T00:52:13;5.18;;;1.70;;
48629;SDS011;34426;52.180;4.462;2022-07-17T00:54:41;5.35;;;1.70;;
48629;SDS011;34426;52.180;4.462;2022-07-17T00:57:09;8.32;;;1.67;;
48629;SDS011;34426;52.180;4.462;2022-07-17T00:59:36;8.80;;;2.10;;
48629;SDS011;34426;52.180;4.462;2022-07-17T01:02:02;5.68;;;1.35;;
48629;SDS011;34426;52.180;4.462;2022-07-17T01:04:28;5.22;;;1.63;;
48629;SDS011;34426;52.180;4.462;2022-07-17T01:06:54;7.63;;;1.50;;
48629;SDS011;34426;52.180;4.462;2022-07-17T01:09:20;7.00;;;1.80;;
48629;SDS011;34426;52.180;4.462;2022-07-17T01:11:46;4.47;;;1.60;;
48629;SDS011;34426;52.180;4.462;2022-07-17T01:14:12;8.45;;;1.90;;
48629;SDS011;34426;52.180;4.462;2022-07-17T01:16:37;6.03;;;1.73;;
48629;SDS011;34426;52.180;4.462;2022-07-17T01:19:04;12.68;;;2.30;;
48629;SDS011;34426;52.180;4.462;2022-07-17T01:21:40;6.78;;;1.73;;
48629;SDS011;34426;52.180;4.462;2022-07-17T01:24:06;4.93;;;1.90;;
48629;SDS011;34426;52.180;4.462;2022-07-17T01:26:32;6.13;;;1.70;;
48629;SDS011;34426;52.180;4.462;2022-07-17T01:28:58;5.07;;;1.75;;
48629;SDS011;34426;52.180;4.462;2022-07-17T01:31:23;5.18;;;1.50;;
48629;SDS011;34426;52.180;4.462;2022-07-17T01:33:49;8.70;;;1.90;;
48629;SDS011;34426;52.180;4.462;2022-07-17T01:36:15;7.68;;;1.58;;
48629;SDS011;34426;52.180;4.462;2022-07-17T01:38:41;5.40;;;1.77;;
48629;SDS011;34426;52.180;4.462;2022-07-17T01:41:07;11.15;;;2.42;;
48629;SDS011;34426;52.180;4.462;2022-07-17T01:43:32;7.63;;;1.70;;
48629;SDS011;34426;52.180;4.462;2022-07-17T01:45:58;7.15;;;1.90;;
48629;SDS011;34426;52.180;4.462;2022-07-17T01:48:24;7.60;;;1.88;;
48629;SDS011;34426;52.180;4.462;2022-07-17T01:50:51;9.77;;;1.90;;
48629;SDS011;34426;52.180;4.462;2022-07-17T01:53:16;9.35;;;2.67;;
48629;SDS011;34426;52.180;4.462;2022-07-17T01:55:43;7.90;;;1.73;;
48629;SDS011;34426;52.180;4.462;2022-07-17T01:58:09;11.40;;;2.35;;
48629;SDS011;34426;52.180;4.462;2022-07-17T02:00:34;8.55;;;1.88;;
48629;SDS011;34426;52.180;4.462;2022-07-17T02:03:00;8.35;;;2.10;;
48629;SDS011;34426;52.180;4.462;2022-07-17T02:05:25;8.52;;;2.95;;
48629;SDS011;34426;52.180;4.462;2022-07-17T02:07:51;8.85;;;2.30;;
48629;SDS011;34426;52.180;4.462;2022-07-17T02:10:16;9.18;;;2.10;;
48629;SDS011;34426;52.180;4.462;2022-07-17T02:12:43;7.63;;;2.42;;
48629;SDS011;34426;52.180;4.462;2022-07-17T02:15:09;11.10;;;2.45;;
48629;SDS011;34426;52.180;4.462;2022-07-17T02:17:34;13.20;;;3.17;;
48629;SDS011;34426;52.180;4.462;2022-07-17T02:20:00;9.27;;;1.95;;
48629;SDS011;34426;52.180;4.462;2022-07-17T02:22:25;7.45;;;2.22;;
48629;SDS011;34426;52.180;4.462;2022-07-17T02:24:51;6.72;;;1.83;;
48629;SDS011;34426;52.180;4.462;2022-07-17T02:27:16;8.30;;;3.00;;
48629;SDS011;34426;52.180;4.462;2022-07-17T02:29:43;4.95;;;1.80;;
48629;SDS011;34426;52.180;4.462;2022-07-17T02:32:09;6.72;;;2.30;;
48629;SDS011;34426;52.180;4.462;2022-07-17T02:34:34;8.15;;;2.50;;
48629;SDS011;34426;52.180;4.462;2022-07-17T02:37:00;9.60;;;2.30;;
48629;SDS011;34426;52.180;4.462;2022-07-17T02:39:25;6.57;;;1.90;;
48629;SDS011;34426;52.180;4.462;2022-07-17T02:41:51;7.70;;;1.77;;
48629;SDS011;34426;52.180;4.462;2022-07-17T02:44:16;7.70;;;1.70;;
48629;SDS011;34426;52.180;4.462;2022-07-17T02:46:43;7.28;;;2.22;;
48629;SDS011;34426;52.180;4.462;2022-07-17T02:49:09;7.47;;;2.25;;
48629;SDS011;34426;52.180;4.462;2022-07-17T02:51:35;8.38;;;2.17;;
48629;SDS011;34426;52.180;4.462;2022-07-17T02:54:00;5.28;;;1.88;;
48629;SDS011;34426;52.180;4.462;2022-07-17T02:56:26;9.45;;;2.22;;
48629;SDS011;34426;52.180;4.462;2022-07-17T02:58:52;5.88;;;1.92;;
48629;SDS011;34426;52.180;4.462;2022-07-17T03:01:18;8.30;;;2.13;;
48629;SDS011;34426;52.180;4.462;2022-07-17T03:03:45;9.23;;;2.35;;
48629;SDS011;34426;52.180;4.462;2022-07-17T03:06:10;7.45;;;1.98;;
48629;SDS011;34426;52.180;4.462;2022-07-17T03:08:36;7.07;;;2.03;;
48629;SDS011;34426;52.180;4.462;2022-07-17T03:11:01;6.07;;;2.10;;
48629;SDS011;34426;52.180;4.462;2022-07-17T03:13:27;10.95;;;2.38;;
48629;SDS011;34426;52.180;4.462;2022-07-17T03:15:52;6.88;;;2.00;;
48629;SDS011;34426;52.180;4.462;2022-07-17T03:18:18;5.75;;;2.25;;
48629;SDS011;34426;52.180;4.462;2022-07-17T03:20:45;6.63;;;1.90;;
48629;SDS011;34426;52.180;4.462;2022-07-17T03:23:10;8.13;;;2.05;;
48629;SDS011;34426;52.180;4.462;2022-07-17T03:25:36;5.20;;;1.85;;
48629;SDS011;34426;52.180;4.462;2022-07-17T03:28:01;9.70;;;2.53;;
48629;SDS011;34426;52.180;4.462;2022-07-17T03:30:27;6.22;;;2.05;;
48629;SDS011;34426;52.180;4.462;2022-07-17T03:32:53;7.10;;;2.00;;
48629;SDS011;34426;52.180;4.462;2022-07-17T03:35:18;5.97;;;2.03;;
48629;SDS011;34426;52.180;4.462;2022-07-17T03:37:45;7.15;;;2.10;;
48629;SDS011;34426;52.180;4.462;2022-07-17T03:40:11;5.80;;;1.90;;
48629;SDS011;34426;52.180;4.462;2022-07-17T03:42:37;14.75;;;2.60;;
48629;SDS011;34426;52.180;4.462;2022-07-17T03:45:03;6.85;;;2.00;;
48629;SDS011;34426;52.180;4.462;2022-07-17T03:47:29;7.20;;;2.38;;
48629;SDS011;34426;52.180;4.462;2022-07-17T03:49:54;7.70;;;2.33;;
48629;SDS011;34426;52.180;4.462;2022-07-17T03:52:19;5.53;;;2.13;;
48629;SDS011;34426;52.180;4.462;2022-07-17T03:54:46;8.00;;;2.28;;
48629;SDS011;34426;52.180;4.462;2022-07-17T03:57:12;11.27;;;2.80;;
48629;SDS011;34426;52.180;4.462;2022-07-17T03:59:37;6.18;;;2.22;;
48629;SDS011;34426;52.180;4.462;2022-07-17T04:02:03;8.88;;;2.17;;
48629;SDS011;34426;52.180;4.462;2022-07-17T04:04:28;7.47;;;2.33;;
48629;SDS011;34426;52.180;4.462;2022-07-17T04:06:54;4.82;;;2.20;;
48629;SDS011;34426;52.180;4.462;2022-07-17T04:09:19;6.57;;;2.40;;
48629;SDS011;34426;52.180;4.462;2022-07-17T04:11:46;8.60;;;2.28;;
48629;SDS011;34426;52.180;4.462;2022-07-17T04:14:11;8.63;;;1.90;;
48629;SDS011;34426;52.180;4.462;2022-07-17T04:16:37;6.88;;;1.90;;
48629;SDS011;34426;52.180;4.462;2022-07-17T04:19:02;5.30;;;2.00;;
48629;SDS011;34426;52.180;4.462;2022-07-17T04:21:28;6.10;;;1.88;;
48629;SDS011;34426;52.180;4.462;2022-07-17T04:23:53;7.38;;;2.70;;
48629;SDS011;34426;52.180;4.462;2022-07-17T04:26:19;3.78;;;1.80;;
48629;SDS011;34426;52.180;4.462;2022-07-17T04:28:46;7.80;;;2.30;;
48629;SDS011;34426;52.180;4.462;2022-07-17T04:31:11;7.75;;;2.08;;
48629;SDS011;34426;52.180;4.462;2022-07-17T04:33:37;8.13;;;2.20;;
48629;SDS011;34426;52.180;4.462;2022-07-17T04:36:02;8.23;;;2.10;;
48629;SDS011;34426;52.180;4.462;2022-07-17T04:38:28;7.75;;;2.17;;
48629;SDS011;34426;52.180;4.462;2022-07-17T04:40:54;9.15;;;1.95;;
48629;SDS011;34426;52.180;4.462;2022-07-17T04:43:19;12.55;;;2.03;;
48629;SDS011;34426;52.180;4.462;2022-07-17T04:45:46;5.85;;;1.90;;
48629;SDS011;34426;52.180;4.462;2022-07-17T04:48:11;8.55;;;1.98;;
48629;SDS011;34426;52.180;4.462;2022-07-17T04:50:37;7.13;;;1.88;;
48629;SDS011;34426;52.180;4.462;2022-07-17T04:53:03;5.45;;;2.47;;
48629;SDS011;34426;52.180;4.462;2022-07-17T04:55:28;6.22;;;1.90;;
48629;SDS011;34426;52.180;4.462;2022-07-17T04:57:53;11.32;;;2.17;;
48629;SDS011;34426;52.180;4.462;2022-07-17T05:00:19;6.35;;;2.00;;
48629;SDS011;34426;52.180;4.462;2022-07-17T05:02:46;5.82;;;2.17;;
48629;SDS011;34426;52.180;4.462;2022-07-17T05:05:12;7.28;;;2.05;;
48629;SDS011;34426;52.180;4.462;2022-07-17T05:07:37;5.20;;;1.98;;
48629;SDS011;34426;52.180;4.462;2022-07-17T05:10:03;6.65;;;1.85;;
48629;SDS011;34426;52.180;4.462;2022-07-17T05:12:29;7.00;;;1.85;;
48629;SDS011;34426;52.180;4.462;2022-07-17T05:14:55;4.57;;;2.13;;
48629;SDS011;34426;52.180;4.462;2022-07-17T05:17:20;4.97;;;2.08;;
48629;SDS011;34426;52.180;4.462;2022-07-17T05:19:47;9.07;;;2.05;;
48629;SDS011;34426;52.180;4.462;2022-07-17T05:22:13;3.78;;;1.50;;
48629;SDS011;34426;52.180;4.462;2022-07-17T05:24:38;11.52;;;2.28;;
48629;SDS011;34426;52.180;4.462;2022-07-17T05:27:04;5.75;;;1.45;;
48629;SDS011;34426;52.180;4.462;2022-07-17T05:29:29;6.43;;;1.50;;
48629;SDS011;34426;52.180;4.462;2022-07-17T05:31:55;6.07;;;1.73;;
48629;SDS011;34426;52.180;4.462;2022-07-17T05:34:20;5.38;;;1.15;;
48629;SDS011;34426;52.180;4.462;2022-07-17T05:36:47;5.75;;;2.40;;
48629;SDS011;34426;52.180;4.462;2022-07-17T05:39:13;12.18;;;1.80;;
48629;SDS011;34426;52.180;4.462;2022-07-17T05:41:38;13.18;;;2.45;;
48629;SDS011;34426;52.180;4.462;2022-07-17T05:44:04;6.55;;;1.50;;
48629;SDS011;34426;52.180;4.462;2022-07-17T05:46:29;9.65;;;2.05;;
48629;SDS011;34426;52.180;4.462;2022-07-17T05:48:55;8.93;;;1.67;;
48629;SDS011;34426;52.180;4.462;2022-07-17T05:51:20;7.80;;;1.40;;
48629;SDS011;34426;52.180;4.462;2022-07-17T05:53:47;11.85;;;2.53;;
48629;SDS011;34426;52.180;4.462;2022-07-17T05:56:12;4.40;;;1.52;;
48629;SDS011;34426;52.180;4.462;2022-07-17T05:58:38;8.40;;;1.92;;
48629;SDS011;34426;52.180;4.462;2022-07-17T06:01:03;11.30;;;1.90;;
48629;SDS011;34426;52.180;4.462;2022-07-17T06:03:29;9.48;;;1.90;;
48629;SDS011;34426;52.180;4.462;2022-07-17T06:05:54;7.82;;;1.88;;
48629;SDS011;34426;52.180;4.462;2022-07-17T06:08:20;7.55;;;1.38;;
48629;SDS011;34426;52.180;4.462;2022-07-17T06:10:47;10.80;;;1.70;;
48629;SDS011;34426;52.180;4.462;2022-07-17T06:13:12;12.02;;;1.55;;
48629;SDS011;34426;52.180;4.462;2022-07-17T06:15:38;9.80;;;1.40;;
48629;SDS011;34426;52.180;4.462;2022-07-17T06:18:04;10.02;;;1.60;;
48629;SDS011;34426;52.180;4.462;2022-07-17T06:20:29;5.60;;;1.23;;
48629;SDS011;34426;52.180;4.462;2022-07-17T06:22:55;8.65;;;1.30;;
48629;SDS011;34426;52.180;4.462;2022-07-17T06:25:21;9.30;;;1.23;;
48629;SDS011;34426;52.180;4.462;2022-07-17T06:27:48;5.40;;;1.30;;
48629;SDS011;34426;52.180;4.462;2022-07-17T06:30:14;8.38;;;1.70;;
48629;SDS011;34426;52.180;4.462;2022-07-17T06:32:40;4.50;;;1.23;;
48629;SDS011;34426;52.180;4.462;2022-07-17T06:35:06;5.72;;;1.00;;
48629;SDS011;34426;52.180;4.462;2022-07-17T06:37:33;5.40;;;1.25;;
48629;SDS011;34426;52.180;4.462;2022-07-17T06:39:59;6.95;;;1.10;;
48629;SDS011;34426;52.180;4.462;2022-07-17T06:42:24;7.18;;;1.58;;
48629;SDS011;34426;52.180;4.462;2022-07-17T06:44:51;6.05;;;1.15;;
48629;SDS011;34426;52.180;4.462;2022-07-17T06:47:16;7.85;;;1.27;;
48629;SDS011;34426;52.180;4.462;2022-07-17T06:49:42;6.25;;;1.52;;
48629;SDS011;34426;52.180;4.462;2022-07-17T06:52:07;6.18;;;0.90;;
48629;SDS011;34426;52.180;4.462;2022-07-17T06:54:33;7.22;;;0.98;;
48629;SDS011;34426;52.180;4.462;2022-07-17T06:56:58;7.05;;;1.23;;
48629;SDS011;34426;52.180;4.462;2022-07-17T06:59:24;5.57;;;1.20;;
48629;SDS011;34426;52.180;4.462;2022-07-17T07:01:50;8.93;;;1.30;;
48629;SDS011;34426;52.180;4.462;2022-07-17T07:04:16;8.32;;;1.20;;
48629;SDS011;34426;52.180;4.462;2022-07-17T07:06:41;4.03;;;1.00;;
48629;SDS011;34426;52.180;4.462;2022-07-17T07:09:07;4.82;;;1.10;;
48629;SDS011;34426;52.180;4.462;2022-07-17T07:11:32;8.70;;;1.02;;
48629;SDS011;34426;52.180;4.462;2022-07-17T07:13:58;9.40;;;1.35;;
48629;SDS011;34426;52.180;4.462;2022-07-17T07:16:23;7.25;;;1.13;;
48629;SDS011;34426;52.180;4.462;2022-07-17T07:18:50;14.73;;;1.77;;
48629;SDS011;34426;52.180;4.462;2022-07-17T07:21:16;12.02;;;1.00;;
48629;SDS011;34426;52.180;4.462;2022-07-17T07:23:41;7.50;;;1.10;;
48629;SDS011;34426;52.180;4.462;2022-07-17T07:26:07;4.43;;;1.10;;
48629;SDS011;34426;52.180;4.462;2022-07-17T07:28:32;9.45;;;1.70;;
48629;SDS011;34426;52.180;4.462;2022-07-17T07:30:58;6.30;;;1.08;;
48629;SDS011;34426;52.180;4.462;2022-07-17T07:33:23;8.15;;;1.40;;
48629;SDS011;34426;52.180;4.462;2022-07-17T07:35:50;6.68;;;1.17;;
48629;SDS011;34426;52.180;4.462;2022-07-17T07:38:16;6.13;;;0.88;;
48629;SDS011;34426;52.180;4.462;2022-07-17T07:40:42;5.60;;;1.10;;
48629;SDS011;34426;52.180;4.462;2022-07-17T07:43:07;10.07;;;1.02;;
48629;SDS011;34426;52.180;4.462;2022-07-17T07:45:33;5.68;;;1.52;;
48629;SDS011;34426;52.180;4.462;2022-07-17T07:47:58;5.80;;;1.38;;
48629;SDS011;34426;52.180;4.462;2022-07-17T07:50:24;7.93;;;1.02;;
48629;SDS011;34426;52.180;4.462;2022-07-17T07:52:52;7.85;;;1.50;;
48629;SDS011;34426;52.180;4.462;2022-07-17T07:55:17;7.82;;;1.30;;
48629;SDS011;34426;52.180;4.462;2022-07-17T07:57:43;9.52;;;1.30;;
48629;SDS011;34426;52.180;4.462;2022-07-17T08:00:09;4.85;;;1.00;;
48629;SDS011;34426;52.180;4.462;2022-07-17T08:02:36;6.03;;;1.15;;
48629;SDS011;34426;52.180;4.462;2022-07-17T08:05:02;2.75;;;1.00;;
48629;SDS011;34426;52.180;4.462;2022-07-17T08:07:27;5.20;;;0.88;;
48629;SDS011;34426;52.180;4.462;2022-07-17T08:09:55;6.03;;;1.10;;
48629;SDS011;34426;52.180;4.462;2022-07-17T08:12:21;4.22;;;1.23;;
48629;SDS011;34426;52.180;4.462;2022-07-17T08:14:47;6.20;;;1.25;;
48629;SDS011;34426;52.180;4.462;2022-07-17T08:17:13;5.70;;;1.20;;
48629;SDS011;34426;52.180;4.462;2022-07-17T08:19:38;3.40;;;1.10;;
48629;SDS011;34426;52.180;4.462;2022-07-17T08:22:04;6.45;;;1.30;;
48629;SDS011;34426;52.180;4.462;2022-07-17T08:24:29;7.68;;;1.40;;
48629;SDS011;34426;52.180;4.462;2022-07-17T08:26:56;5.93;;;1.33;;
48629;SDS011;34426;52.180;4.462;2022-07-17T08:29:22;3.00;;;1.05;;
48629;SDS011;34426;52.180;4.462;2022-07-17T08:31:47;7.18;;;1.55;;
48629;SDS011;34426;52.180;4.462;2022-07-17T08:34:13;8.63;;;1.50;;
48629;SDS011;34426;52.180;4.462;2022-07-17T08:36:38;5.20;;;1.20;;
48629;SDS011;34426;52.180;4.462;2022-07-17T08:39:04;6.85;;;2.20;;
48629;SDS011;34426;52.180;4.462;2022-07-17T08:41:29;5.57;;;1.30;;
48629;SDS011;34426;52.180;4.462;2022-07-17T08:43:56;7.80;;;1.48;;
48629;SDS011;34426;52.180;4.462;2022-07-17T08:46:23;2.28;;;0.90;;
48629;SDS011;34426;52.180;4.462;2022-07-17T08:48:49;4.10;;;1.00;;
48629;SDS011;34426;52.180;4.462;2022-07-17T08:51:21;3.85;;;1.23;;
48629;SDS011;34426;52.180;4.462;2022-07-17T08:53:47;6.72;;;1.50;;
48629;SDS011;34426;52.180;4.462;2022-07-17T08:56:13;6.63;;;1.30;;
48629;SDS011;34426;52.180;4.462;2022-07-17T08:58:38;2.97;;;0.85;;
48629;SDS011;34426;52.180;4.462;2022-07-17T09:01:05;4.15;;;1.50;;
48629;SDS011;34426;52.180;4.462;2022-07-17T09:03:31;3.13;;;1.00;;
48629;SDS011;34426;52.180;4.462;2022-07-17T09:05:56;6.60;;;1.10;;
48629;SDS011;34426;52.180;4.462;2022-07-17T09:08:23;5.95;;;1.33;;
48629;SDS011;34426;52.180;4.462;2022-07-17T09:10:51;5.65;;;1.58;;
48629;SDS011;34426;52.180;4.462;2022-07-17T09:13:19;5.05;;;1.30;;
48629;SDS011;34426;52.180;4.462;2022-07-17T09:15:46;5.85;;;1.23;;
48629;SDS011;34426;52.180;4.462;2022-07-17T09:18:15;6.55;;;1.02;;
48629;SDS011;34426;52.180;4.462;2022-07-17T09:20:44;4.90;;;1.40;;
48629;SDS011;34426;52.180;4.462;2022-07-17T09:23:11;4.93;;;1.10;;
48629;SDS011;34426;52.180;4.462;2022-07-17T09:25:37;3.60;;;1.02;;
48629;SDS011;34426;52.180;4.462;2022-07-17T09:28:04;7.13;;;1.30;;
48629;SDS011;34426;52.180;4.462;2022-07-17T09:30:31;3.90;;;0.93;;
48629;SDS011;34426;52.180;4.462;2022-07-17T09:32:57;5.03;;;1.08;;
48629;SDS011;34426;52.180;4.462;2022-07-17T09:35:24;5.45;;;1.40;;
48629;SDS011;34426;52.180;4.462;2022-07-17T09:37:50;2.17;;;1.02;;
48629;SDS011;34426;52.180;4.462;2022-07-17T09:40:16;3.10;;;0.90;;
48629;SDS011;34426;52.180;4.462;2022-07-17T09:42:41;4.28;;;1.40;;
48629;SDS011;34426;52.180;4.462;2022-07-17T09:45:09;4.53;;;1.73;;
48629;SDS011;34426;52.180;4.462;2022-07-17T09:47:37;4.18;;;0.90;;
48629;SDS011;34426;52.180;4.462;2022-07-17T09:50:04;3.53;;;1.13;;
48629;SDS011;34426;52.180;4.462;2022-07-17T09:52:33;2.83;;;0.93;;
48629;SDS011;34426;52.180;4.462;2022-07-17T09:55:01;2.00;;;0.95;;
48629;SDS011;34426;52.180;4.462;2022-07-17T09:57:30;7.20;;;1.10;;
48629;SDS011;34426;52.180;4.462;2022-07-17T09:59:59;3.35;;;1.05;;
48629;SDS011;34426;52.180;4.462;2022-07-17T10:02:27;3.63;;;0.90;;
48629;SDS011;34426;52.180;4.462;2022-07-17T10:04:54;5.22;;;0.95;;
48629;SDS011;34426;52.180;4.462;2022-07-17T10:07:20;4.60;;;0.75;;
48629;SDS011;34426;52.180;4.462;2022-07-17T10:09:47;3.92;;;1.05;;
48629;SDS011;34426;52.180;4.462;2022-07-17T10:12:13;3.97;;;0.88;;
48629;SDS011;34426;52.180;4.462;2022-07-17T10:14:39;4.38;;;1.20;;
48629;SDS011;34426;52.180;4.462;2022-07-17T10:17:05;1.38;;;0.63;;
48629;SDS011;34426;52.180;4.462;2022-07-17T10:19:32;4.75;;;1.05;;
48629;SDS011;34426;52.180;4.462;2022-07-17T10:21:58;1.95;;;1.33;;
48629;SDS011;34426;52.180;4.462;2022-07-17T10:24:24;3.53;;;1.10;;
48629;SDS011;34426;52.180;4.462;2022-07-17T10:26:52;2.67;;;1.08;;
48629;SDS011;34426;52.180;4.462;2022-07-17T10:29:28;2.15;;;1.17;;
48629;SDS011;34426;52.180;4.462;2022-07-17T10:31:55;2.85;;;1.10;;
48629;SDS011;34426;52.180;4.462;2022-07-17T10:34:25;3.15;;;1.20;;
48629;SDS011;34426;52.180;4.462;2022-07-17T10:37:13;4.13;;;1.38;;
48629;SDS011;34426;52.180;4.462;2022-07-17T10:39:51;2.85;;;1.15;;
48629;SDS011;34426;52.180;4.462;2022-07-17T10:42:41;2.35;;;1.30;;
48629;SDS011;34426;52.180;4.462;2022-07-17T10:45:09;3.97;;;1.35;;
48629;SDS011;34426;52.180;4.462;2022-07-17T10:47:46;3.28;;;1.42;;
48629;SDS011;34426;52.180;4.462;2022-07-17T10:50:17;6.05;;;1.63;;
48629;SDS011;34426;52.180;4.462;2022-07-17T10:52:55;2.30;;;1.67;;
48629;SDS011;34426;52.180;4.462;2022-07-17T10:55:22;2.78;;;1.30;;
48629;SDS011;34426;52.180;4.462;2022-07-17T10:57:49;3.90;;;1.75;;
48629;SDS011;34426;52.180;4.462;2022-07-17T11:00:14;6.10;;;1.83;;
48629;SDS011;34426;52.180;4.462;2022-07-17T11:02:40;4.65;;;1.40;;
48629;SDS011;34426;52.180;4.462;2022-07-17T11:05:06;2.70;;;1.50;;
48629;SDS011;34426;52.180;4.462;2022-07-17T11:07:32;5.60;;;1.40;;
48629;SDS011;34426;52.180;4.462;2022-07-17T11:09:57;4.93;;;1.30;;
48629;SDS011;34426;52.180;4.462;2022-07-17T11:12:29;3.60;;;1.42;;
48629;SDS011;34426;52.180;4.462;2022-07-17T11:17:25;7.55;;;1.52;;
48629;SDS011;34426;52.180;4.462;2022-07-17T11:19:51;3.10;;;1.67;;
48629;SDS011;34426;52.180;4.462;2022-07-17T11:22:16;2.67;;;1.50;;
48629;SDS011;34426;52.180;4.462;2022-07-17T11:24:42;3.67;;;1.80;;
48629;SDS011;34426;52.180;4.462;2022-07-17T11:27:09;4.28;;;1.70;;
48629;SDS011;34426;52.180;4.462;2022-07-17T11:29:35;5.40;;;2.10;;
48629;SDS011;34426;52.180;4.462;2022-07-17T11:32:03;3.47;;;2.13;;
48629;SDS011;34426;52.180;4.462;2022-07-17T11:34:29;6.28;;;1.98;;
48629;SDS011;34426;52.180;4.462;2022-07-17T11:36:58;5.93;;;1.83;;
48629;SDS011;34426;52.180;4.462;2022-07-17T11:39:24;5.53;;;1.95;;
48629;SDS011;34426;52.180;4.462;2022-07-17T11:41:50;3.72;;;1.98;;
48629;SDS011;34426;52.180;4.462;2022-07-17T11:44:18;4.38;;;1.70;;
48629;SDS011;34426;52.180;4.462;2022-07-17T11:46:46;4.40;;;2.20;;
48629;SDS011;34426;52.180;4.462;2022-07-17T11:49:24;5.57;;;2.45;;
48629;SDS011;34426;52.180;4.462;2022-07-17T11:51:50;3.08;;;1.60;;
48629;SDS011;34426;52.180;4.462;2022-07-17T11:54:16;3.72;;;1.88;;
48629;SDS011;34426;52.180;4.462;2022-07-17T11:56:42;2.15;;;1.63;;
48629;SDS011;34426;52.180;4.462;2022-07-17T11:59:22;5.70;;;2.10;;
48629;SDS011;34426;52.180;4.462;2022-07-17T12:01:49;4.22;;;1.95;;
48629;SDS011;34426;52.180;4.462;2022-07-17T12:04:14;3.15;;;2.10;;
48629;SDS011;34426;52.180;4.462;2022-07-17T12:06:41;2.55;;;2.03;;
48629;SDS011;34426;52.180;4.462;2022-07-17T12:09:08;3.05;;;2.00;;
48629;SDS011;34426;52.180;4.462;2022-07-17T12:11:44;3.28;;;1.98;;
48629;SDS011;34426;52.180;4.462;2022-07-17T12:14:10;5.03;;;1.95;;
48629;SDS011;34426;52.180;4.462;2022-07-17T12:16:36;2.95;;;2.17;;
48629;SDS011;34426;52.180;4.462;2022-07-17T12:19:07;6.13;;;2.30;;
48629;SDS011;34426;52.180;4.462;2022-07-17T12:21:33;2.08;;;1.75;;
48629;SDS011;34426;52.180;4.462;2022-07-17T12:24:17;5.00;;;2.50;;
48629;SDS011;34426;52.180;4.462;2022-07-17T12:26:44;5.60;;;2.75;;
48629;SDS011;34426;52.180;4.462;2022-07-17T12:29:09;4.75;;;2.80;;
48629;SDS011;34426;52.180;4.462;2022-07-17T12:31:35;8.75;;;2.05;;
48629;SDS011;34426;52.180;4.462;2022-07-17T12:34:00;3.05;;;2.47;;
48629;SDS011;34426;52.180;4.462;2022-07-17T12:36:26;3.55;;;2.60;;
48629;SDS011;34426;52.180;4.462;2022-07-17T12:38:51;5.53;;;2.70;;
48629;SDS011;34426;52.180;4.462;2022-07-17T12:41:20;5.32;;;2.70;;
48629;SDS011;34426;52.180;4.462;2022-07-17T12:43:45;2.95;;;2.75;;
48629;SDS011;34426;52.180;4.462;2022-07-17T12:46:11;3.40;;;2.25;;
48629;SDS011;34426;52.180;4.462;2022-07-17T12:48:36;10.20;;;3.42;;
48629;SDS011;34426;52.180;4.462;2022-07-17T12:51:02;4.07;;;3.00;;
48629;SDS011;34426;52.180;4.462;2022-07-17T12:53:28;5.55;;;3.60;;
48629;SDS011;34426;52.180;4.462;2022-07-17T12:55:54;5.30;;;3.53;;
48629;SDS011;34426;52.180;4.462;2022-07-17T12:58:20;4.57;;;3.20;;
48629;SDS011;34426;52.180;4.462;2022-07-17T13:00:46;5.80;;;3.60;;
48629;SDS011;34426;52.180;4.462;2022-07-17T13:03:11;6.03;;;3.70;;
48629;SDS011;34426;52.180;4.462;2022-07-17T13:05:37;8.57;;;3.90;;
48629;SDS011;34426;52.180;4.462;2022-07-17T13:08:02;6.50;;;3.72;;
48629;SDS011;34426;52.180;4.462;2022-07-17T13:10:28;4.47;;;3.42;;
48629;SDS011;34426;52.180;4.462;2022-07-17T13:12:54;4.72;;;3.38;;
48629;SDS011;34426;52.180;4.462;2022-07-17T13:15:21;4.82;;;3.60;;
48629;SDS011;34426;52.180;4.462;2022-07-17T13:17:46;5.85;;;3.38;;
48629;SDS011;34426;52.180;4.462;2022-07-17T13:20:11;4.38;;;2.88;;
48629;SDS011;34426;52.180;4.462;2022-07-17T13:22:37;4.80;;;3.53;;
48629;SDS011;34426;52.180;4.462;2022-07-17T13:25:03;5.95;;;3.30;;
48629;SDS011;34426;52.180;4.462;2022-07-17T13:27:29;7.10;;;3.45;;
48629;SDS011;34426;52.180;4.462;2022-07-17T13:29:54;7.53;;;3.50;;
48629;SDS011;34426;52.180;4.462;2022-07-17T13:32:21;4.38;;;3.17;;
48629;SDS011;34426;52.180;4.462;2022-07-17T13:34:47;5.78;;;3.28;;
48629;SDS011;34426;52.180;4.462;2022-07-17T13:37:12;4.53;;;3.40;;
48629;SDS011;34426;52.180;4.462;2022-07-17T13:39:38;3.70;;;3.00;;
48629;SDS011;34426;52.180;4.462;2022-07-17T13:42:03;3.72;;;3.08;;
48629;SDS011;34426;52.180;4.462;2022-07-17T13:44:29;4.95;;;3.30;;
48629;SDS011;34426;52.180;4.462;2022-07-17T13:46:54;4.22;;;3.20;;
48629;SDS011;34426;52.180;4.462;2022-07-17T13:49:21;5.63;;;2.72;;
48629;SDS011;34426;52.180;4.462;2022-07-17T13:51:47;6.47;;;3.17;;
48629;SDS011;34426;52.180;4.462;2022-07-17T13:54:12;3.63;;;2.67;;
48629;SDS011;34426;52.180;4.462;2022-07-17T13:56:38;7.30;;;3.35;;
48629;SDS011;34426;52.180;4.462;2022-07-17T13:59:03;6.22;;;2.78;;
48629;SDS011;34426;52.180;4.462;2022-07-17T14:01:29;3.40;;;2.80;;
48629;SDS011;34426;52.180;4.462;2022-07-17T14:03:54;4.88;;;3.28;;
48629;SDS011;34426;52.180;4.462;2022-07-17T14:06:21;7.13;;;2.95;;
48629;SDS011;34426;52.180;4.462;2022-07-17T14:08:47;4.35;;;2.72;;
48629;SDS011;34426;52.180;4.462;2022-07-17T14:11:12;2.97;;;2.63;;
48629;SDS011;34426;52.180;4.462;2022-07-17T14:13:38;5.18;;;3.13;;
48629;SDS011;34426;52.180;4.462;2022-07-17T14:16:04;4.28;;;2.70;;
48629;SDS011;34426;52.180;4.462;2022-07-17T14:18:30;3.42;;;2.47;;
48629;SDS011;34426;52.180;4.462;2022-07-17T14:20:55;3.45;;;2.35;;
48629;SDS011;34426;52.180;4.462;2022-07-17T14:23:22;7.70;;;2.50;;
48629;SDS011;34426;52.180;4.462;2022-07-17T14:25:48;4.82;;;2.67;;
48629;SDS011;34426;52.180;4.462;2022-07-17T14:28:13;5.90;;;2.72;;
48629;SDS011;34426;52.180;4.462;2022-07-17T14:30:39;9.73;;;2.42;;
48629;SDS011;34426;52.180;4.462;2022-07-17T14:33:05;4.40;;;2.50;;
48629;SDS011;34426;52.180;4.462;2022-07-17T14:35:31;4.25;;;2.05;;
48629;SDS011;34426;52.180;4.462;2022-07-17T14:37:56;3.40;;;2.10;;
48629;SDS011;34426;52.180;4.462;2022-07-17T14:40:23;6.82;;;2.80;;
48629;SDS011;34426;52.180;4.462;2022-07-17T14:42:49;3.38;;;2.15;;
48629;SDS011;34426;52.180;4.462;2022-07-17T14:45:15;4.57;;;2.50;;